Terminal Aerodrome Forecast
Issued by NWS

Home | Current Version | Previous Version | Text Only | Print | Product List | Glossary On
Versions: 1 2 3 4 5 6 7 8 9 10 11 12 13 14 15 16 17 18 19 20 21 22
000
FTUS41 KOKX 171121
TAFSWF
TAF
KSWF 171121Z 1712/1818 VRB02KT P6SM SCT040 OVC070
      TEMPO 1714/1716 6SM -RA BKN040 OVC070
     FM171600 11005KT 5SM -RA BR BKN015 OVC030
     FM172000 09005KT 2SM -RA BR OVC005
     FM180400 04005KT 1SM -RA BR OVC003
     FM181300 01006KT 2SM -RA BR OVC007
      AMD NOT SKED=

USA.gov is the U.S. government's official web portal to all federal, state and local government web resources and services.